createdAt,value
2022-09-23T00:01:09.549Z,6.93
2022-09-23T00:03:38.665Z,4.93
2022-09-23T00:06:07.906Z,6.10
2022-09-23T00:08:34.868Z,7.57
2022-09-23T00:11:18.860Z,5.47
2022-09-23T00:13:48.896Z,5.22
2022-09-23T00:16:18.672Z,4.25
2022-09-23T00:18:45.316Z,7.18
2022-09-23T00:21:14.509Z,3.97
2022-09-23T00:23:43.063Z,6.75
2022-09-23T00:26:12.765Z,7.00
2022-09-23T00:28:40.069Z,5.53
2022-09-23T00:31:12.869Z,6.57
2022-09-23T00:33:40.680Z,3.97
2022-09-23T00:36:11.143Z,4.05
2022-09-23T00:38:38.618Z,6.70
2022-09-23T00:41:06.533Z,8.13
2022-09-23T00:43:46.854Z,7.03
2022-09-23T00:46:18.440Z,4.28
2022-09-23T00:48:45.782Z,4.72
2022-09-23T00:51:18.211Z,7.40
2022-09-23T00:53:48.729Z,7.63
2022-09-23T00:56:16.026Z,4.97
2022-09-23T00:58:46.536Z,5.60
2022-09-23T01:01:16.802Z,4.70
2022-09-23T01:03:45.795Z,4.38
2022-09-23T01:06:13.281Z,6.07
2022-09-23T01:08:42.118Z,4.55
2022-09-23T01:11:37.151Z,4.63
2022-09-23T01:14:09.741Z,10.70
2022-09-23T01:16:45.248Z,4.00
2022-09-23T01:19:36.235Z,4.60
2022-09-23T01:22:41.067Z,8.52
2022-09-23T01:25:47.238Z,6.13
2022-09-23T01:28:39.375Z,7.07
2022-09-23T01:31:15.913Z,5.85
2022-09-23T01:34:02.521Z,8.30
2022-09-23T01:37:04.529Z,7.13
2022-09-23T01:39:39.449Z,4.43
2022-09-23T01:42:17.429Z,4.88
2022-09-23T01:44:51.582Z,5.53
2022-09-23T01:47:57.253Z,4.97
2022-09-23T01:51:07.719Z,4.50
2022-09-23T01:53:50.657Z,4.25
2022-09-23T01:56:28.986Z,4.38
2022-09-23T01:59:18.698Z,6.50
2022-09-23T02:01:52.497Z,4.40
2022-09-23T02:04:45.818Z,4.72
2022-09-23T02:07:28.275Z,5.78
2022-09-23T02:10:19.819Z,5.18
2022-09-23T02:12:52.095Z,5.05
2022-09-23T02:15:23.528Z,10.02
2022-09-23T02:17:52.249Z,4.80
2022-09-23T02:20:36.722Z,5.40
2022-09-23T02:23:13.179Z,6.00
2022-09-23T02:26:16.561Z,5.07
2022-09-23T02:29:27.817Z,4.85
2022-09-23T02:32:00.303Z,5.65
2022-09-23T02:34:56.260Z,5.10
2022-09-23T02:37:30.246Z,6.85
2022-09-23T02:40:03.029Z,10.48
2022-09-23T02:42:57.236Z,5.82
2022-09-23T02:45:24.086Z,6.30
2022-09-23T02:47:56.686Z,4.68
2022-09-23T02:50:23.327Z,4.20
2022-09-23T02:52:50.031Z,7.07
2022-09-23T02:55:18.642Z,3.75
2022-09-23T02:57:46.240Z,6.00
2022-09-23T03:00:13.565Z,6.38
2022-09-23T03:02:50.958Z,4.30
2022-09-23T03:05:32.410Z,4.97
2022-09-23T03:08:30.763Z,4.45
2022-09-23T03:11:10.605Z,4.82
2022-09-23T03:13:46.892Z,6.68
2022-09-23T03:16:32.823Z,4.43
2022-09-23T03:19:18.549Z,8.68
2022-09-23T03:21:56.849Z,5.70
2022-09-23T03:24:25.069Z,5.68
2022-09-23T03:26:54.206Z,5.47
2022-09-23T03:29:23.518Z,6.75
2022-09-23T03:31:52.895Z,10.20
2022-09-23T03:34:31.910Z,5.85
2022-09-23T03:37:03.405Z,5.63
2022-09-23T03:39:40.265Z,5.60
2022-09-23T03:42:17.061Z,4.82
2022-09-23T03:44:45.697Z,7.25
2022-09-23T03:47:14.723Z,5.53
2022-09-23T03:49:44.572Z,8.18
2022-09-23T03:52:11.204Z,6.40
2022-09-23T03:54:37.753Z,5.80
2022-09-23T03:57:04.388Z,10.98
2022-09-23T03:59:31.455Z,5.07
2022-09-23T04:01:59.566Z,9.05
2022-09-23T04:04:27.910Z,8.00
2022-09-23T04:06:55.698Z,7.15
2022-09-23T04:09:23.040Z,6.97
2022-09-23T04:11:53.519Z,6.93
2022-09-23T04:14:21.716Z,6.55
2022-09-23T04:16:49.262Z,8.70
2022-09-23T04:19:17.853Z,5.55
2022-09-23T04:21:44.751Z,6.30
2022-09-23T04:24:11.866Z,7.43
2022-09-23T04:26:39.330Z,6.65
2022-09-23T04:29:06.572Z,12.35
2022-09-23T04:31:33.879Z,6.57
2022-09-23T04:34:00.757Z,5.75
2022-09-23T04:36:29.134Z,6.22
2022-09-23T04:38:56.361Z,7.88
2022-09-23T04:41:23.078Z,8.93
2022-09-23T04:43:49.638Z,6.70
2022-09-23T04:46:16.781Z,10.27
2022-09-23T04:48:44.501Z,8.77
2022-09-23T04:51:17.443Z,5.35
2022-09-23T04:53:46.495Z,8.13
2022-09-23T04:56:24.792Z,7.43
2022-09-23T04:58:51.402Z,5.57
2022-09-23T05:01:26.833Z,7.03
2022-09-23T05:03:56.365Z,10.52
2022-09-23T05:06:22.952Z,12.70
2022-09-23T05:08:55.084Z,8.45
2022-09-23T05:11:22.493Z,7.47
2022-09-23T05:13:51.060Z,6.53
2022-09-23T05:16:19.226Z,8.75
2022-09-23T05:18:48.201Z,7.55
2022-09-23T05:21:17.101Z,9.30
2022-09-23T05:23:48.730Z,14.30
2022-09-23T05:26:15.946Z,16.42
2022-09-23T05:28:42.480Z,16.45
2022-09-23T05:31:20.651Z,8.65
2022-09-23T05:33:51.966Z,11.35
2022-09-23T05:38:49.200Z,7.85
2022-09-23T05:41:17.269Z,13.18
2022-09-23T05:43:44.258Z,8.07
2022-09-23T05:46:16.659Z,9.23
2022-09-23T05:48:45.865Z,8.65
2022-09-23T05:51:27.609Z,7.60
2022-09-23T05:53:58.404Z,8.35
2022-09-23T05:56:27.506Z,13.45
2022-09-23T05:58:56.837Z,10.27
2022-09-23T06:01:26.151Z,8.43
2022-09-23T06:03:53.908Z,22.65
2022-09-23T06:06:31.050Z,10.65
2022-09-23T06:08:59.287Z,13.68
2022-09-23T06:11:26.590Z,9.52
2022-09-23T06:14:01.290Z,11.65
2022-09-23T06:16:29.716Z,12.45
2022-09-23T06:18:56.607Z,10.35
2022-09-23T06:21:23.238Z,10.75
2022-09-23T06:23:52.980Z,10.80
2022-09-23T06:26:22.578Z,12.55
2022-09-23T06:28:50.361Z,13.18
2022-09-23T06:31:17.825Z,10.38
2022-09-23T06:33:46.236Z,7.80
2022-09-23T06:36:30.262Z,10.38
2022-09-23T06:39:02.302Z,9.73
2022-09-23T06:41:29.161Z,9.73
2022-09-23T06:43:55.723Z,6.60
2022-09-23T06:46:22.332Z,8.38
2022-09-23T06:48:49.724Z,7.72
2022-09-23T06:51:19.296Z,8.73
2022-09-23T06:53:48.188Z,12.68
2022-09-23T06:56:16.718Z,11.18
2022-09-23T06:58:43.312Z,19.65
2022-09-23T07:01:16.313Z,14.63
2022-09-23T07:03:44.370Z,33.40
2022-09-23T07:06:11.186Z,19.00
2022-09-23T07:08:37.870Z,20.42
2022-09-23T07:11:06.667Z,23.63
2022-09-23T07:13:34.016Z,17.83
2022-09-23T07:16:04.759Z,11.80
2022-09-23T07:18:37.332Z,20.02
2022-09-23T07:21:15.935Z,13.50
2022-09-23T07:23:46.798Z,19.70
2022-09-23T07:26:14.695Z,15.27
2022-09-23T07:28:41.552Z,10.00
2022-09-23T07:31:13.902Z,14.63
2022-09-23T07:33:44.103Z,13.10
2022-09-23T07:36:13.970Z,12.90
2022-09-23T07:38:45.222Z,10.30
2022-09-23T07:41:17.994Z,15.73
2022-09-23T07:43:48.235Z,14.45
2022-09-23T07:46:17.587Z,16.35
2022-09-23T07:48:45.795Z,6.28
2022-09-23T07:51:21.644Z,12.60
2022-09-23T07:53:49.340Z,6.53
2022-09-23T07:56:16.420Z,9.38
2022-09-23T07:58:43.215Z,16.83
2022-09-23T08:01:12.052Z,11.13
2022-09-23T08:03:39.989Z,10.48
2022-09-23T08:06:12.142Z,7.35
2022-09-23T08:08:43.318Z,7.75
2022-09-23T08:11:13.269Z,7.50
2022-09-23T08:13:41.176Z,4.65
2022-09-23T08:16:08.152Z,4.35
2022-09-23T08:18:35.273Z,5.35
2022-09-23T08:21:01.931Z,11.52
2022-09-23T08:23:33.344Z,6.63
2022-09-23T08:26:02.438Z,11.38
2022-09-23T08:28:29.291Z,13.63
2022-09-23T08:30:56.303Z,10.60
2022-09-23T08:33:23.995Z,11.13
2022-09-23T08:35:51.553Z,9.93
2022-09-23T08:38:18.912Z,10.45
2022-09-23T08:40:49.614Z,8.02
2022-09-23T08:43:26.848Z,7.00
2022-09-23T08:45:55.840Z,8.70
2022-09-23T08:48:29.483Z,9.43
2022-09-23T08:51:04.585Z,5.68
2022-09-23T08:53:36.835Z,10.40
2022-09-23T08:56:07.520Z,7.15
2022-09-23T08:58:52.266Z,6.70
2022-09-23T09:01:29.461Z,9.65
2022-09-23T09:04:02.222Z,7.65
2022-09-23T09:06:52.210Z,6.18
2022-09-23T09:09:32.550Z,4.78
2022-09-23T09:12:04.962Z,5.55
2022-09-23T09:14:54.703Z,5.30
2022-09-23T09:17:48.452Z,4.95
2022-09-23T09:20:27.386Z,5.55
2022-09-23T09:22:58.066Z,3.90
2022-09-23T09:25:37.908Z,5.30
2022-09-23T09:28:19.578Z,4.13
2022-09-23T09:30:50.495Z,6.32
2022-09-23T09:36:07.703Z,5.90
2022-09-23T09:38:37.312Z,3.42
2022-09-23T09:41:17.984Z,3.67
2022-09-23T09:43:53.423Z,5.53
2022-09-23T09:46:26.110Z,4.88
2022-09-23T09:49:00.550Z,5.32
2022-09-23T09:51:29.451Z,6.00
2022-09-23T09:54:22.162Z,8.18
2022-09-23T09:56:49.907Z,5.15
2022-09-23T09:59:23.198Z,5.97
2022-09-23T10:01:49.862Z,5.78
2022-09-23T10:04:25.013Z,3.67
2022-09-23T10:07:24.379Z,3.72
2022-09-23T10:09:52.139Z,12.15
2022-09-23T10:12:21.360Z,5.03
2022-09-23T10:14:53.244Z,6.97
2022-09-23T10:17:39.696Z,3.58
2022-09-23T10:20:14.738Z,4.55
2022-09-23T10:22:42.916Z,4.72
2022-09-23T10:25:24.652Z,6.10
2022-09-23T10:27:51.215Z,4.78
2022-09-23T10:30:24.942Z,3.97
2022-09-23T10:32:54.979Z,7.70
2022-09-23T10:35:24.572Z,5.68
2022-09-23T10:37:56.362Z,3.75
2022-09-23T10:40:56.694Z,3.95
2022-09-23T10:44:13.178Z,5.20
2022-09-23T10:46:53.243Z,14.85
2022-09-23T10:50:17.535Z,4.23
2022-09-23T10:52:52.645Z,4.05
2022-09-23T10:55:48.605Z,6.25
2022-09-23T10:58:38.146Z,6.80
2022-09-23T11:01:28.590Z,4.07
2022-09-23T11:04:32.205Z,5.20
2022-09-23T11:07:20.759Z,5.15
2022-09-23T11:10:14.560Z,3.85
2022-09-23T11:13:14.049Z,6.40
2022-09-23T11:16:02.381Z,7.25
2022-09-23T11:18:45.116Z,4.15
2022-09-23T11:21:44.179Z,5.53
2022-09-23T11:24:50.166Z,6.22
2022-09-23T11:27:41.215Z,6.82
2022-09-23T11:35:41.795Z,3.20
2022-09-23T11:38:15.310Z,3.95
2022-09-23T11:40:46.700Z,3.38
2022-09-23T11:43:23.522Z,5.95
2022-09-23T11:45:58.616Z,3.78
2022-09-23T11:48:41.677Z,8.75
2022-09-23T11:51:16.643Z,4.93
2022-09-23T11:53:46.712Z,9.15
2022-09-23T11:56:35.956Z,4.30
2022-09-23T11:59:13.086Z,3.80
2022-09-23T12:01:47.620Z,4.07
2022-09-23T12:04:31.323Z,11.73
2022-09-23T12:07:05.989Z,6.70
2022-09-23T12:09:58.222Z,6.43
2022-09-23T12:12:52.055Z,4.13
2022-09-23T12:15:37.405Z,2.72
2022-09-23T12:18:45.781Z,9.73
2022-09-23T12:21:49.906Z,4.78
2022-09-23T12:24:26.678Z,11.10
2022-09-23T12:26:58.996Z,9.75
2022-09-23T12:29:30.433Z,7.68
2022-09-23T12:31:57.093Z,9.93
2022-09-23T12:34:30.556Z,9.43
2022-09-23T12:37:04.846Z,5.68
2022-09-23T12:39:35.458Z,10.23
2022-09-23T12:42:05.170Z,7.40
2022-09-23T12:44:45.122Z,6.40
2022-09-23T12:47:14.685Z,6.37
2022-09-23T12:49:42.865Z,8.50
2022-09-23T12:52:14.649Z,8.25
2022-09-23T12:54:43.294Z,6.32
2022-09-23T12:57:14.731Z,9.00
2022-09-23T13:00:09.369Z,4.93
2022-09-23T13:03:08.245Z,5.05
2022-09-23T13:06:07.140Z,3.70
2022-09-23T13:08:39.007Z,6.80
2022-09-23T13:11:14.049Z,7.22
2022-09-23T13:13:45.413Z,8.90
2022-09-23T13:16:33.430Z,4.05
2022-09-23T13:19:05.510Z,4.15
2022-09-23T13:21:47.257Z,8.38
2022-09-23T13:24:14.362Z,4.53
2022-09-23T13:26:45.426Z,3.35
2022-09-23T13:29:33.210Z,4.95
2022-09-23T13:32:02.374Z,5.38
2022-09-23T13:34:38.719Z,3.40
2022-09-23T13:37:42.495Z,6.00
2022-09-23T13:40:15.995Z,3.55
2022-09-23T13:42:45.519Z,5.55
2022-09-23T13:45:16.820Z,6.40
2022-09-23T13:47:47.532Z,2.80
2022-09-23T13:50:20.412Z,5.07
2022-09-23T13:52:56.441Z,3.60
2022-09-23T13:55:41.395Z,4.65
2022-09-23T13:58:19.546Z,4.15
2022-09-23T14:00:47.957Z,2.40
2022-09-23T14:03:35.361Z,10.00
2022-09-23T14:06:11.417Z,3.95
2022-09-23T14:11:18.961Z,7.38
2022-09-23T14:13:47.365Z,3.92
2022-09-23T14:16:16.112Z,6.30
2022-09-23T14:18:48.405Z,3.00
2022-09-23T14:21:37.276Z,6.00
2022-09-23T14:24:21.598Z,2.38
2022-09-23T14:26:55.698Z,10.00
2022-09-23T14:29:35.181Z,1.88
2022-09-23T14:32:06.478Z,3.42
2022-09-23T14:34:42.010Z,3.55
2022-09-23T14:37:51.124Z,1.90
2022-09-23T14:40:22.028Z,2.17
2022-09-23T14:45:25.976Z,2.40
2022-09-23T14:48:15.084Z,6.35
2022-09-23T14:50:51.473Z,4.05
2022-09-23T14:53:23.903Z,6.28
2022-09-23T14:56:07.906Z,2.92
2022-09-23T14:58:52.060Z,4.25
2022-09-23T15:01:33.705Z,2.15
2022-09-23T15:04:15.736Z,2.63
2022-09-23T15:07:07.591Z,4.80
2022-09-23T15:09:41.669Z,3.78
2022-09-23T15:12:14.620Z,3.70
2022-09-23T15:14:46.504Z,3.20
2022-09-23T15:17:35.144Z,2.08
2022-09-23T15:20:08.910Z,2.15
2022-09-23T15:22:54.175Z,2.72
2022-09-23T15:25:35.640Z,2.95
2022-09-23T15:28:08.392Z,4.18
2022-09-23T15:30:37.007Z,7.57
2022-09-23T15:33:04.499Z,4.95
2022-09-23T15:35:35.623Z,3.28
2022-09-23T15:38:03.284Z,2.30
2022-09-23T15:40:32.794Z,4.55
2022-09-23T15:43:02.512Z,1.65
2022-09-23T15:45:36.419Z,4.20
2022-09-23T15:48:14.238Z,2.15
2022-09-23T15:50:46.604Z,2.83
2022-09-23T15:53:16.242Z,3.60
2022-09-23T15:55:42.993Z,3.85
2022-09-23T15:58:09.630Z,4.72
2022-09-23T16:00:36.750Z,6.38
2022-09-23T16:03:06.728Z,1.92
2022-09-23T16:05:39.375Z,3.08
2022-09-23T16:08:09.202Z,3.55
2022-09-23T16:10:36.611Z,3.23
2022-09-23T16:13:06.372Z,6.30
2022-09-23T16:15:33.401Z,3.65
2022-09-23T16:18:00.580Z,3.00
2022-09-23T16:20:29.801Z,4.22
2022-09-23T16:22:58.186Z,4.82
2022-09-23T16:25:28.072Z,6.32
2022-09-23T16:27:56.259Z,3.40
2022-09-23T16:30:24.001Z,4.05
2022-09-23T16:32:51.755Z,6.53
2022-09-23T16:35:23.002Z,3.33
2022-09-23T16:37:50.772Z,4.30
2022-09-23T16:40:20.621Z,5.60
2022-09-23T16:42:49.109Z,6.95
2022-09-23T16:45:17.912Z,8.68
2022-09-23T16:47:46.502Z,5.00
2022-09-23T16:50:14.773Z,4.97
2022-09-23T16:52:42.233Z,9.07
2022-09-23T16:55:11.217Z,4.65
2022-09-23T16:57:39.717Z,4.65
2022-09-23T17:00:32.587Z,9.18
2022-09-23T17:03:18.345Z,6.22
2022-09-23T17:05:46.867Z,6.32
2022-09-23T17:08:15.758Z,3.97
2022-09-23T17:10:44.260Z,4.43
2022-09-23T17:13:15.632Z,5.35
2022-09-23T17:15:43.223Z,4.60
2022-09-23T17:18:10.261Z,4.07
2022-09-23T17:20:38.743Z,4.70
2022-09-23T17:23:05.444Z,3.30
2022-09-23T17:25:34.039Z,5.95
2022-09-23T17:28:00.898Z,3.80
2022-09-23T17:30:33.352Z,10.18
2022-09-23T17:33:00.227Z,3.17
2022-09-23T17:35:26.862Z,3.15
2022-09-23T17:37:56.527Z,2.38
2022-09-23T17:40:26.178Z,3.55
2022-09-23T17:42:55.571Z,4.32
2022-09-23T17:45:22.317Z,2.47
2022-09-23T17:47:55.015Z,3.80
2022-09-23T17:50:22.484Z,2.95
2022-09-23T17:52:49.166Z,4.63
2022-09-23T17:55:16.787Z,2.95
2022-09-23T17:57:43.461Z,5.75
2022-09-23T18:00:10.701Z,5.97
2022-09-23T18:02:37.300Z,2.38
2022-09-23T18:05:03.968Z,3.03
2022-09-23T18:07:30.615Z,2.40
2022-09-23T18:09:57.457Z,3.70
2022-09-23T18:12:24.095Z,2.58
2022-09-23T18:14:50.707Z,3.63
2022-09-23T18:17:17.476Z,5.03
2022-09-23T18:19:46.494Z,4.15
2022-09-23T18:22:13.365Z,3.30
2022-09-23T18:24:41.206Z,3.15
2022-09-23T18:27:08.188Z,3.13
2022-09-23T18:29:35.100Z,3.85
2022-09-23T18:32:02.788Z,5.18
2022-09-23T18:34:29.660Z,2.60
2022-09-23T18:36:56.291Z,4.00
2022-09-23T18:39:22.907Z,8.13
2022-09-23T18:41:49.610Z,10.50
2022-09-23T18:44:16.940Z,7.43
2022-09-23T18:46:46.661Z,8.45
2022-09-23T18:49:31.890Z,8.00
2022-09-23T18:51:59.449Z,7.45
2022-09-23T18:54:28.640Z,11.05
2022-09-23T18:56:56.634Z,9.27
2022-09-23T18:59:28.010Z,13.93
2022-09-23T19:01:57.569Z,7.80
2022-09-23T19:04:26.117Z,8.60
2022-09-23T19:06:54.805Z,8.65
2022-09-23T19:09:21.451Z,7.65
2022-09-23T19:11:50.797Z,9.45
2022-09-23T19:14:17.436Z,9.65
2022-09-23T19:16:44.068Z,8.95
2022-09-23T19:19:10.984Z,7.20
2022-09-23T19:21:37.576Z,7.07
2022-09-23T19:24:06.977Z,6.50
2022-09-23T19:26:39.246Z,8.52
2022-09-23T19:29:08.407Z,8.68
2022-09-23T19:31:40.424Z,7.80
2022-09-23T19:34:18.613Z,6.78
2022-09-23T19:36:47.417Z,8.77
2022-09-23T19:39:23.484Z,5.82
2022-09-23T19:44:32.112Z,5.47
2022-09-23T19:46:58.842Z,4.93
2022-09-23T19:49:25.831Z,8.50
2022-09-23T19:51:58.824Z,9.50
2022-09-23T19:54:27.587Z,9.15
2022-09-23T19:56:54.731Z,9.55
2022-09-23T19:59:21.359Z,13.85
2022-09-23T20:01:58.322Z,8.20
2022-09-23T20:04:25.012Z,10.18
2022-09-23T20:06:51.671Z,8.27
2022-09-23T20:09:18.313Z,6.18
2022-09-23T20:11:48.186Z,7.82
2022-09-23T20:14:15.220Z,10.20
2022-09-23T20:16:41.917Z,15.02
2022-09-23T20:19:14.295Z,9.93
2022-09-23T20:21:40.866Z,8.38
2022-09-23T20:24:09.666Z,11.13
2022-09-23T20:26:55.076Z,7.55
2022-09-23T20:29:21.726Z,7.18
2022-09-23T20:31:48.414Z,9.82
2022-09-23T20:34:15.233Z,9.95
2022-09-23T20:36:42.511Z,12.02
2022-09-23T20:39:10.362Z,10.30
2022-09-23T20:41:39.327Z,8.48
2022-09-23T20:44:10.426Z,9.80
2022-09-23T20:49:04.366Z,8.15
2022-09-23T20:51:33.287Z,13.32
2022-09-23T20:54:00.459Z,11.27
2022-09-23T20:56:30.653Z,13.60
2022-09-23T20:59:01.063Z,13.10
2022-09-23T21:01:27.762Z,8.13
2022-09-23T21:03:55.997Z,9.10
2022-09-23T21:06:26.213Z,13.68
2022-09-23T21:08:58.906Z,8.45
2022-09-23T21:11:26.104Z,9.05
2022-09-23T21:13:54.842Z,19.40
2022-09-23T21:16:22.842Z,7.80
2022-09-23T21:18:57.694Z,11.45
2022-09-23T21:21:24.818Z,8.90
2022-09-23T21:23:51.608Z,9.35
2022-09-23T21:26:20.948Z,12.18
2022-09-23T21:29:02.394Z,11.32
2022-09-23T21:31:38.586Z,10.40
2022-09-23T21:34:07.682Z,10.82
2022-09-23T21:36:39.528Z,8.77
2022-09-23T21:39:12.571Z,8.85
2022-09-23T21:41:40.046Z,8.60
2022-09-23T21:44:08.415Z,11.05
2022-09-23T21:46:35.637Z,7.05
2022-09-23T21:49:07.276Z,7.93
2022-09-23T21:51:40.532Z,6.53
2022-09-23T21:54:12.543Z,7.78
2022-09-23T21:56:39.182Z,7.25
2022-09-23T21:59:15.996Z,8.35
2022-09-23T22:01:44.983Z,7.40
2022-09-23T22:04:16.680Z,8.98
2022-09-23T22:06:43.827Z,10.32
2022-09-23T22:09:21.148Z,8.50
2022-09-23T22:12:07.775Z,8.13
2022-09-23T22:14:34.743Z,9.07
2022-09-23T22:17:06.600Z,9.15
2022-09-23T22:19:40.191Z,10.25
2022-09-23T22:22:13.332Z,9.45
2022-09-23T22:24:44.075Z,8.25
2022-09-23T22:27:12.444Z,7.22
2022-09-23T22:29:57.571Z,9.88
2022-09-23T22:32:46.128Z,7.97
2022-09-23T22:35:21.216Z,8.38
2022-09-23T22:37:47.977Z,14.20
2022-09-23T22:40:17.846Z,10.43
2022-09-23T22:42:45.339Z,9.07
2022-09-23T22:45:12.656Z,6.97
2022-09-23T22:47:41.299Z,9.75
2022-09-23T22:50:09.531Z,11.05
2022-09-23T22:52:36.436Z,9.77
2022-09-23T22:55:03.792Z,9.32
2022-09-23T22:57:31.260Z,12.27
2022-09-23T22:59:57.825Z,12.05
2022-09-23T23:02:24.424Z,10.10
2022-09-23T23:04:51.134Z,7.22
2022-09-23T23:07:23.176Z,6.68
2022-09-23T23:09:50.783Z,7.05
2022-09-23T23:12:20.723Z,8.52
2022-09-23T23:14:48.223Z,7.50
2022-09-23T23:17:14.937Z,7.82
2022-09-23T23:19:41.708Z,7.22
2022-09-23T23:22:08.477Z,6.53
2022-09-23T23:24:35.062Z,11.60
2022-09-23T23:27:01.709Z,9.07
2022-09-23T23:29:28.285Z,15.70
2022-09-23T23:31:55.641Z,8.38
2022-09-23T23:34:22.711Z,10.25
2022-09-23T23:36:54.775Z,10.68
2022-09-23T23:39:23.673Z,8.00
2022-09-23T23:41:55.226Z,6.47
2022-09-23T23:44:23.615Z,7.18
2022-09-23T23:46:50.649Z,8.05
2022-09-23T23:49:17.350Z,7.82
2022-09-23T23:51:43.962Z,10.43
2022-09-23T23:54:11.933Z,9.15
2022-09-23T23:56:38.498Z,6.97
2022-09-23T23:59:05.079Z,12.68
